Time;durP1;ratioP1;P1;durP2;ratioP2;P2;SDS_P1;SDS_P2;PMS_P1;PMS_P2;Temp;Humidity;BMP_temperature;BMP_pressure;BME280_temperature;BME280_humidity;BME280_pressure;Samples;Min_cycle;Max_cycle;Signal;HPM_P1;HPM_P2
2022/07/05 00:01:49;;;;;;;1.70;1.10;;;;;;;17.53;52.19;95950.16;5016082;28;20198;-78
2022/07/05 00:04:15;;;;;;;1.38;1.05;;;;;;;17.52;52.35;95949.34;5017628;28;20544;-78
2022/07/05 00:09:24;;;;;;;1.67;1.35;;;;;;;17.44;52.91;95938.09;5010948;28;20214;-78
2022/07/05 00:11:50;;;;;;;1.20;1.10;;;;;;;17.44;52.75;95940.72;5022120;28;20618;-78
2022/07/05 00:14:15;;;;;;;4.03;1.23;;;;;;;17.44;52.84;95938.91;5015677;28;20211;-78
2022/07/05 00:16:40;;;;;;;3.03;1.27;;;;;;;17.43;53.07;95941.72;5000190;28;20570;-78
2022/07/05 00:19:05;;;;;;;1.73;1.30;;;;;;;17.39;53.17;95949.13;4999895;28;20183;-78
2022/07/05 00:21:31;;;;;;;2.60;1.40;;;;;;;17.36;53.60;95932.94;5000046;28;20206;-78
2022/07/05 00:23:56;;;;;;;1.98;1.38;;;;;;;17.33;53.36;95943.81;4998969;28;20191;-78
2022/07/05 00:26:21;;;;;;;1.92;1.30;;;;;;;17.28;53.58;95944.34;5015758;28;20657;-78
2022/07/05 00:28:46;;;;;;;1.50;1.02;;;;;;;17.30;53.88;95937.09;4999907;28;20191;-78
2022/07/05 00:31:12;;;;;;;3.72;1.40;;;;;;;17.30;53.16;95939.72;4999918;28;20195;-78
2022/07/05 00:33:37;;;;;;;2.10;1.20;;;;;;;17.25;53.77;95935.00;5009930;28;20214;-78
2022/07/05 00:36:03;;;;;;;5.28;1.40;;;;;;;17.23;54.60;95939.63;4999581;28;20195;-77
2022/07/05 00:38:28;;;;;;;2.20;1.30;;;;;;;17.18;54.90;95934.09;5016629;28;20183;-78
2022/07/05 00:40:53;;;;;;;3.53;1.25;;;;;;;17.18;54.98;95931.47;5017745;28;20207;-78
2022/07/05 00:43:19;;;;;;;1.60;1.33;;;;;;;17.17;55.15;95932.47;5016716;28;20183;-78
2022/07/05 00:45:44;;;;;;;4.15;1.20;;;;;;;17.24;54.78;95935.19;4998930;28;20193;-78
2022/07/05 00:48:09;;;;;;;4.30;1.50;;;;;;;17.13;55.54;95938.25;5018067;28;20195;-79
2022/07/05 00:50:34;;;;;;;3.28;1.30;;;;;;;17.11;55.55;95937.59;5036923;28;20279;-77
2022/07/05 00:53:00;;;;;;;2.85;1.27;;;;;;;17.05;56.01;95938.31;5037759;28;20182;-77
2022/07/05 00:55:25;;;;;;;3.47;1.30;;;;;;;16.99;55.96;95942.47;5020975;28;20218;-77
2022/07/05 00:57:51;;;;;;;4.70;1.60;;;;;;;16.92;56.72;95938.94;5006897;28;20198;-78
2022/07/05 01:00:17;;;;;;;5.75;1.83;;;;;;;16.85;56.97;95945.88;5019135;28;20207;-79
2022/07/05 01:02:42;;;;;;;4.10;1.50;;;;;;;16.82;56.96;95938.38;5018596;28;20179;-79
2022/07/05 01:05:07;;;;;;;4.35;1.85;;;;;;;16.76;57.04;95939.06;5000335;28;20182;-79
2022/07/05 01:07:34;;;;;;;3.78;1.80;;;;;;;16.72;57.11;95941.22;5018584;28;20171;-79
2022/07/05 01:09:59;;;;;;;3.08;1.48;;;;;;;16.72;57.47;95945.66;5019341;28;20202;-79
2022/07/05 01:12:25;;;;;;;4.55;1.73;;;;;;;16.64;57.30;95938.63;5031251;28;20171;-78
2022/07/05 01:14:50;;;;;;;3.05;1.27;;;;;;;16.59;57.45;95941.78;5029044;28;20211;-77
2022/07/05 01:17:16;;;;;;;4.22;1.75;;;;;;;16.58;57.90;95948.00;5037404;28;20164;-78
2022/07/05 01:19:41;;;;;;;3.63;1.42;;;;;;;16.53;57.89;95939.88;5036370;28;20179;-79
2022/07/05 01:22:18;;;;;;;2.97;1.42;;;;;;;16.43;59.42;95947.13;5020046;28;20211;-79
2022/07/05 01:24:45;;;;;;;3.83;1.60;;;;;;;16.37;59.22;95947.84;5015897;28;20179;-79
2022/07/05 01:27:10;;;;;;;3.88;1.30;;;;;;;16.33;59.65;95949.16;5015517;28;20191;-79
2022/07/05 01:29:35;;;;;;;4.85;1.88;;;;;;;16.30;59.31;95947.69;4998610;28;20242;-78
2022/07/05 01:32:01;;;;;;;2.03;1.50;;;;;;;16.26;60.15;95956.09;5016206;28;20202;-79
2022/07/05 01:34:26;;;;;;;2.97;1.40;;;;;;;16.24;59.83;95952.81;5014209;28;20218;-79
2022/07/05 01:36:52;;;;;;;6.75;1.88;;;;;;;16.17;59.63;95950.09;5013756;28;20191;-78
2022/07/05 01:39:18;;;;;;;3.90;1.63;;;;;;;16.12;59.67;95952.41;5014765;28;20177;-78
2022/07/05 01:41:44;;;;;;;1.80;1.48;;;;;;;16.18;59.44;95948.28;5014585;28;20198;-79
2022/07/05 01:44:10;;;;;;;3.75;1.58;;;;;;;16.13;59.55;95944.34;5014441;28;20405;-78
2022/07/05 01:46:38;;;;;;;1.95;1.42;;;;;;;16.09;59.63;95948.31;4998784;28;20182;-78
2022/07/05 01:49:06;;;;;;;2.63;1.40;;;;;;;16.07;59.76;95944.22;5014884;28;20183;-78
2022/07/05 01:51:39;;;;;;;2.85;1.27;;;;;;;16.05;59.87;95941.78;5013034;28;20195;-79
2022/07/05 01:54:05;;;;;;;4.78;1.55;;;;;;;16.07;59.58;95952.09;5011827;28;20202;-78
2022/07/05 01:56:30;;;;;;;5.20;1.60;;;;;;;16.06;59.51;95950.44;4997138;28;20178;-78
2022/07/05 01:58:56;;;;;;;2.22;1.77;;;;;;;16.01;60.59;95945.75;4997296;28;20559;-78
2022/07/05 02:01:32;;;;;;;2.70;1.45;;;;;;;15.96;60.40;95952.47;5015063;28;20277;-79
2022/07/05 02:03:58;;;;;;;4.80;1.50;;;;;;;15.90;60.36;95945.28;4996175;28;20608;-79
2022/07/05 02:06:24;;;;;;;2.45;1.67;;;;;;;15.85;61.00;95951.88;5014158;28;20187;-78
2022/07/05 02:08:49;;;;;;;2.50;1.55;;;;;;;15.83;60.62;95947.78;5015368;28;20183;-78
2022/07/05 02:11:14;;;;;;;4.50;1.38;;;;;;;15.80;61.19;95941.06;5015132;28;20207;-78
2022/07/05 02:13:39;;;;;;;2.03;1.20;;;;;;;15.73;61.73;95940.16;5013045;28;20199;-78
2022/07/05 02:16:05;;;;;;;4.32;1.52;;;;;;;15.72;61.43;95941.09;5013446;28;20685;-78
2022/07/05 02:18:30;;;;;;;4.57;1.33;;;;;;;15.69;61.58;95945.88;5013874;28;20539;-78
2022/07/05 02:20:55;;;;;;;2.70;1.42;;;;;;;15.66;61.71;95946.22;5014498;28;20590;-78
2022/07/05 02:23:21;;;;;;;3.13;1.58;;;;;;;15.63;61.97;95946.53;5019262;28;20182;-78
2022/07/05 02:25:46;;;;;;;3.35;1.88;;;;;;;15.62;61.84;95950.97;5018889;28;20168;-78
2022/07/05 02:28:11;;;;;;;2.40;1.55;;;;;;;15.62;62.19;95952.75;5036265;28;20183;-77
2022/07/05 02:30:37;;;;;;;1.50;1.40;;;;;;;15.62;61.86;95944.91;5036194;28;20198;-78
2022/07/05 02:33:02;;;;;;;1.88;1.40;;;;;;;15.59;61.29;95946.03;5035743;28;20172;-78
2022/07/05 02:35:27;;;;;;;1.77;1.33;;;;;;;15.58;60.90;95941.78;5036075;28;20226;-77
2022/07/05 02:37:53;;;;;;;2.50;1.30;;;;;;;15.59;61.01;95946.03;5035970;28;20179;-78
2022/07/05 02:40:18;;;;;;;4.22;1.52;;;;;;;15.56;61.30;95941.97;5036062;28;20203;-77
2022/07/05 02:42:43;;;;;;;1.75;1.65;;;;;;;15.56;61.24;95947.19;5035977;28;20194;-77
2022/07/05 02:45:09;;;;;;;1.67;1.58;;;;;;;15.55;60.86;95945.56;5019158;28;20168;-78
2022/07/05 02:47:34;;;;;;;1.88;1.30;;;;;;;15.56;61.44;95944.59;5036613;28;20163;-77
2022/07/05 02:50:07;;;;;;;2.33;1.40;;;;;;;15.50;61.64;95953.09;5035839;28;20182;-77
2022/07/05 02:52:33;;;;;;;1.70;1.50;;;;;;;15.49;61.74;95945.41;5035926;28;20223;-77
2022/07/05 02:54:59;;;;;;;1.80;1.50;;;;;;;15.45;61.42;95950.16;5035199;28;20222;-77
2022/07/05 02:57:24;;;;;;;1.88;1.70;;;;;;;15.40;61.84;95946.44;5036274;28;20163;-77
2022/07/05 02:59:49;;;;;;;2.65;1.67;;;;;;;15.27;62.71;95944.31;5035707;28;20171;-77
2022/07/05 03:02:14;;;;;;;3.50;1.63;;;;;;;15.31;62.30;95953.47;5019566;28;20171;-77
2022/07/05 03:04:40;;;;;;;4.22;1.60;;;;;;;15.21;62.79;95945.81;5035348;28;20175;-77
2022/07/05 03:07:05;;;;;;;2.00;1.80;;;;;;;15.18;62.57;95942.69;5019372;28;20183;-77
2022/07/05 03:09:30;;;;;;;2.72;1.60;;;;;;;15.13;63.19;95945.00;5019299;28;20175;-77
2022/07/05 03:11:56;;;;;;;3.53;1.77;;;;;;;15.13;62.89;95947.63;5036050;28;20183;-77
2022/07/05 03:14:21;;;;;;;2.20;1.85;;;;;;;15.10;62.72;95940.91;5035277;28;20183;-76
2022/07/05 03:16:46;;;;;;;2.92;1.92;;;;;;;15.14;62.91;95952.69;5036058;28;20179;-76
2022/07/05 03:19:12;;;;;;;3.75;1.70;;;;;;;15.13;62.49;95958.09;5035435;28;20206;-77
2022/07/05 03:21:37;;;;;;;4.97;1.55;;;;;;;15.12;62.91;95948.63;5035417;28;20203;-77
2022/07/05 03:24:03;;;;;;;1.90;1.70;;;;;;;15.12;62.96;95948.63;5034811;28;20188;-77
2022/07/05 03:26:28;;;;;;;2.45;1.73;;;;;;;15.14;62.83;95949.25;5035538;28;20210;-76
2022/07/05 03:28:53;;;;;;;4.65;1.38;;;;;;;15.10;63.24;95951.38;5018544;28;20250;-77
2022/07/05 03:31:19;;;;;;;2.13;1.83;;;;;;;15.09;63.05;95954.97;5018976;28;20258;-77
2022/07/05 03:33:44;;;;;;;1.70;1.25;;;;;;;15.10;63.60;95956.59;5034362;28;20263;-77
2022/07/05 03:36:10;;;;;;;2.28;1.77;;;;;;;15.13;63.21;95952.88;5018724;28;20210;-77
2022/07/05 03:38:36;;;;;;;2.88;1.65;;;;;;;15.16;62.75;95955.94;5018226;28;20187;-77
2022/07/05 03:41:01;;;;;;;2.70;1.50;;;;;;;15.21;62.07;95965.94;5018518;28;20194;-77
2022/07/05 03:43:27;;;;;;;1.73;1.40;;;;;;;15.28;61.70;95970.34;5035546;28;20193;-77
2022/07/05 03:45:54;;;;;;;2.13;1.30;;;;;;;15.37;60.92;95965.06;5018568;28;20214;-77
2022/07/05 03:48:19;;;;;;;1.60;1.35;;;;;;;15.38;61.20;95964.09;5035422;28;20197;-76
2022/07/05 03:50:44;;;;;;;3.40;1.73;;;;;;;15.43;61.03;95962.59;5035624;28;20251;-76
2022/07/05 03:53:10;;;;;;;3.33;1.42;;;;;;;15.46;60.86;95967.53;5034871;28;20239;-77
2022/07/05 03:55:35;;;;;;;5.95;1.65;;;;;;;15.67;60.46;95968.78;5017921;28;20283;-77
2022/07/05 03:58:00;;;;;;;3.42;1.40;;;;;;;16.92;57.42;95973.03;5009528;28;20243;-76
2022/07/05 04:00:26;;;;;;;2.60;1.60;;;;;;;18.53;51.83;95979.28;5032369;28;20254;-77
2022/07/05 04:02:51;;;;;;;3.83;1.60;;;;;;;19.84;47.08;95985.88;5033125;28;20199;-77
2022/07/05 04:05:16;;;;;;;3.20;1.30;;;;;;;20.96;44.59;95985.47;5037514;28;20175;-77
2022/07/05 04:07:52;;;;;;;3.92;1.30;;;;;;;21.75;42.05;95989.97;5036784;28;20183;-77
2022/07/05 04:10:18;;;;;;;2.17;1.30;;;;;;;22.21;40.74;95994.31;5014983;28;20941;-78
2022/07/05 04:12:43;;;;;;;6.05;1.85;;;;;;;22.56;39.60;95995.59;4994575;28;20192;-78
2022/07/05 04:15:09;;;;;;;2.55;1.30;;;;;;;23.45;38.13;96002.56;4998107;28;20694;-79
2022/07/05 04:17:34;;;;;;;1.58;1.30;;;;;;;24.15;36.51;96009.47;5026469;28;20210;-77
2022/07/05 04:20:00;;;;;;;2.15;1.50;;;;;;;24.24;36.73;96010.78;5036895;28;20187;-78
2022/07/05 04:22:25;;;;;;;4.68;1.20;;;;;;;24.69;35.26;96016.59;5021204;28;20239;-78
2022/07/05 04:27:34;;;;;;;3.67;1.20;;;;;;;24.75;34.77;96015.69;5037455;28;20262;-78
2022/07/05 04:29:59;;;;;;;1.73;1.63;;;;;;;24.81;34.24;96020.09;5023338;28;20187;-79
2022/07/05 04:32:25;;;;;;;3.17;1.73;;;;;;;25.48;33.90;96011.97;5027770;28;20271;-79
2022/07/05 04:34:50;;;;;;;1.85;1.10;;;;;;;25.88;32.94;96009.47;5028102;28;20207;-80
2022/07/05 04:37:15;;;;;;;2.70;1.17;;;;;;;26.25;32.57;96018.00;5001978;28;20198;-80
2022/07/05 04:39:41;;;;;;;4.25;1.20;;;;;;;26.37;32.08;96025.16;5015651;28;20402;-79
2022/07/05 04:42:06;;;;;;;2.95;1.10;;;;;;;26.74;30.93;96020.31;5015032;28;20211;-79
2022/07/05 04:44:31;;;;;;;2.80;1.27;;;;;;;27.35;30.27;96024.09;5015735;28;20187;-79
2022/07/05 04:46:57;;;;;;;2.35;0.90;;;;;;;28.02;29.79;96017.97;5016299;28;20689;-79
2022/07/05 04:49:22;;;;;;;3.10;1.23;;;;;;;28.48;28.99;96020.19;5011250;28;20198;-79
2022/07/05 04:51:47;;;;;;;2.97;1.10;;;;;;;29.00;28.16;96019.72;5015909;28;20210;-79
2022/07/05 04:54:13;;;;;;;2.20;1.10;;;;;;;28.85;27.54;96026.75;5014471;28;20230;-80
2022/07/05 04:56:38;;;;;;;4.13;1.10;;;;;;;29.52;26.64;96029.06;5018071;28;20666;-82
2022/07/05 04:59:03;;;;;;;1.95;0.90;;;;;;;29.32;27.02;96034.97;4996089;28;20218;-80
2022/07/05 05:01:28;;;;;;;2.30;0.90;;;;;;;29.99;25.86;96023.75;5014588;28;20218;-81
2022/07/05 05:03:54;;;;;;;2.33;0.90;;;;;;;30.90;25.06;96023.41;5014781;28;20183;-79
2022/07/05 05:06:19;;;;;;;2.25;0.80;;;;;;;31.26;24.14;96026.97;5015285;28;20183;-79
2022/07/05 05:08:44;;;;;;;2.22;1.10;;;;;;;31.47;23.92;96024.34;4999222;28;20172;-79
2022/07/05 05:11:10;;;;;;;1.00;0.90;;;;;;;32.62;23.03;96021.72;5000097;28;20258;-79
2022/07/05 05:13:35;;;;;;;2.88;1.00;;;;;;;32.06;22.46;96021.88;5016729;28;20167;-80
2022/07/05 05:16:01;;;;;;;2.90;1.20;;;;;;;31.93;23.96;96019.75;5016644;28;20203;-79
2022/07/05 05:18:27;;;;;;;2.33;1.10;;;;;;;32.53;22.67;96033.34;4998941;28;20199;-80
2022/07/05 05:20:54;;;;;;;1.08;0.82;;;;;;;32.55;22.81;96020.41;5000323;28;20779;-79
2022/07/05 05:23:19;;;;;;;1.63;0.98;;;;;;;32.72;22.15;96025.44;5016171;28;20202;-80
2022/07/05 05:25:45;;;;;;;2.17;0.80;;;;;;;32.75;22.04;96031.06;5017050;28;20179;-80
2022/07/05 05:28:10;;;;;;;4.25;1.00;;;;;;;32.61;21.57;96030.06;4999789;28;20206;-80
2022/07/05 05:30:35;;;;;;;2.90;0.80;;;;;;;33.09;21.26;96041.16;5034756;28;20187;-79
2022/07/05 05:33:01;;;;;;;1.80;0.80;;;;;;;32.35;22.04;96032.06;5038013;28;20167;-79
2022/07/05 05:35:26;;;;;;;3.08;0.90;;;;;;;31.97;21.71;96028.88;5035986;28;20223;-79
2022/07/05 05:37:53;;;;;;;1.05;0.80;;;;;;;31.16;22.41;96031.50;5018161;28;20171;-79
2022/07/05 05:40:20;;;;;;;3.60;0.90;;;;;;;31.40;21.25;96032.63;5018633;28;20226;-79
2022/07/05 05:42:45;;;;;;;1.73;0.80;;;;;;;31.91;21.05;96042.59;5029228;28;20321;-80
2022/07/05 05:45:10;;;;;;;2.58;0.90;;;;;;;31.04;23.17;96037.13;5022581;28;20205;-80
2022/07/05 05:47:47;;;;;;;2.15;1.10;;;;;;;31.83;21.68;96030.53;5015774;28;20186;-80
2022/07/05 05:50:12;;;;;;;3.00;1.00;;;;;;;31.74;21.87;96038.28;4998401;28;20209;-80
2022/07/05 05:52:37;;;;;;;1.55;0.90;;;;;;;31.63;22.09;96041.22;4998254;28;20179;-80
2022/07/05 05:55:05;;;;;;;1.60;0.77;;;;;;;31.51;22.20;96044.19;5014194;28;20214;-79
2022/07/05 05:57:31;;;;;;;1.80;0.80;;;;;;;32.13;20.98;96035.81;5014991;28;20176;-79
2022/07/05 05:59:56;;;;;;;2.00;0.70;;;;;;;33.58;19.11;96043.00;5015748;28;20172;-80
2022/07/05 06:02:21;;;;;;;1.77;0.77;;;;;;;33.30;20.50;96056.06;5014324;28;20179;-80
2022/07/05 06:04:46;;;;;;;1.15;0.75;;;;;;;32.97;20.37;96050.38;5013376;28;20191;-80
2022/07/05 06:07:12;;;;;;;2.00;0.82;;;;;;;32.71;20.00;96053.44;5015678;28;20665;-79
2022/07/05 06:09:37;;;;;;;2.15;1.00;;;;;;;33.37;19.71;96056.59;5014853;28;20176;-79
2022/07/05 06:12:03;;;;;;;2.92;1.00;;;;;;;32.01;20.68;96059.50;5013884;28;20195;-79
2022/07/05 06:14:28;;;;;;;1.13;0.82;;;;;;;31.98;21.63;96059.22;5013384;28;20569;-79
2022/07/05 06:16:53;;;;;;;2.00;0.90;;;;;;;31.76;21.78;96059.53;5013486;28;20552;-79
2022/07/05 06:19:18;;;;;;;1.52;0.73;;;;;;;31.85;21.82;96061.38;5012619;28;20186;-78
2022/07/05 06:21:44;;;;;;;1.52;1.00;;;;;;;32.41;21.15;96068.56;5013204;28;20199;-78
2022/07/05 06:24:09;;;;;;;3.00;0.90;;;;;;;31.90;22.03;96073.22;5012671;28;20567;-79
2022/07/05 06:26:34;;;;;;;2.20;0.90;;;;;;;33.29;19.80;96080.56;5013615;28;20175;-78
2022/07/05 06:29:00;;;;;;;1.90;1.30;;;;;;;32.22;21.70;96081.75;4997122;28;20183;-78
2022/07/05 06:31:25;;;;;;;1.73;1.00;;;;;;;31.51;23.31;96081.75;4996747;28;20203;-78
2022/07/05 06:33:50;;;;;;;2.60;0.80;;;;;;;31.89;22.85;96079.63;5013135;28;20225;-78
2022/07/05 06:36:15;;;;;;;1.55;0.90;;;;;;;31.55;22.21;96077.47;5013908;28;20187;-78
2022/07/05 06:38:41;;;;;;;1.35;0.85;;;;;;;31.67;22.59;96072.63;5012735;28;20179;-78
2022/07/05 06:41:06;;;;;;;2.45;0.93;;;;;;;31.94;22.22;96076.97;5012665;28;20605;-78
2022/07/05 06:43:31;;;;;;;2.10;0.85;;;;;;;31.63;22.89;96079.63;4996129;28;20218;-78
2022/07/05 06:45:57;;;;;;;2.33;0.70;;;;;;;31.96;22.56;96093.59;5013635;28;20182;-78
2022/07/05 06:48:22;;;;;;;1.08;0.90;;;;;;;32.01;21.76;96091.72;5012869;28;20171;-78
2022/07/05 06:50:47;;;;;;;3.85;0.98;;;;;;;31.89;21.84;96088.50;5014444;28;20207;-78
2022/07/05 06:53:13;;;;;;;1.67;1.10;;;;;;;31.14;22.49;96093.47;5014262;28;20215;-79
2022/07/05 06:55:43;;;;;;;3.05;1.00;;;;;;;31.33;22.39;96084.94;5012748;28;20695;-78
2022/07/05 06:58:09;;;;;;;3.95;1.23;;;;;;;30.60;23.77;96085.75;5013728;28;20172;-78
2022/07/05 07:00:35;;;;;;;1.75;1.00;;;;;;;31.60;21.78;96093.56;5013897;28;20201;-78
2022/07/05 07:03:00;;;;;;;2.42;1.10;;;;;;;31.26;22.68;96088.69;5036181;28;20235;-78
2022/07/05 07:05:26;;;;;;;2.42;1.02;;;;;;;31.12;22.24;96094.81;5019625;28;20167;-78
2022/07/05 07:10:35;;;;;;;2.15;0.90;;;;;;;30.75;23.57;96097.63;5024437;28;20225;-78
2022/07/05 07:13:01;;;;;;;2.25;0.85;;;;;;;30.90;23.95;96095.00;5011648;28;20715;-77
2022/07/05 07:15:27;;;;;;;2.08;1.15;;;;;;;31.59;22.71;96086.59;5010723;28;20199;-77
2022/07/05 07:17:53;;;;;;;3.15;0.93;;;;;;;31.93;22.56;96100.34;4993943;28;20176;-79
2022/07/05 07:20:18;;;;;;;2.25;1.13;;;;;;;31.94;22.24;96095.75;5012267;28;20751;-78
2022/07/05 07:22:43;;;;;;;3.47;1.67;;;;;;;32.02;22.65;96095.22;5013896;28;20234;-78
2022/07/05 07:25:11;;;;;;;4.63;1.00;;;;;;;31.39;21.87;96102.69;4996658;28;20599;-79
2022/07/05 07:27:50;;;;;;;2.70;1.00;;;;;;;31.45;22.34;96098.91;5013634;28;20618;-79
2022/07/05 07:30:19;;;;;;;3.42;0.90;;;;;;;31.40;22.51;96106.97;4997157;28;20556;-78
2022/07/05 07:32:45;;;;;;;2.20;1.08;;;;;;;30.62;24.27;96099.69;5014678;28;20270;-77
2022/07/05 07:35:11;;;;;;;3.63;1.05;;;;;;;31.36;22.76;96105.88;4999264;28;20207;-78
2022/07/05 07:37:36;;;;;;;3.33;1.20;;;;;;;31.38;22.94;96107.25;4999679;28;20198;-78
2022/07/05 07:40:06;;;;;;;2.00;1.20;;;;;;;29.95;25.15;96111.03;5015723;28;20175;-79
2022/07/05 07:42:32;;;;;;;2.42;1.02;;;;;;;30.27;24.62;96102.97;4999641;28;20190;-78
2022/07/05 07:44:57;;;;;;;2.35;1.23;;;;;;;29.56;26.47;96105.88;5015086;28;20477;-78
2022/07/05 07:47:23;;;;;;;1.15;1.05;;;;;;;29.74;25.91;96102.00;5015496;28;20182;-78
2022/07/05 07:49:48;;;;;;;2.70;1.10;;;;;;;29.85;25.93;96108.25;5015319;28;20180;-78
2022/07/05 07:52:14;;;;;;;2.63;1.10;;;;;;;28.90;27.59;96117.72;4999388;28;20287;-78
2022/07/05 07:54:39;;;;;;;1.38;1.10;;;;;;;28.87;27.24;96118.97;5014998;28;20202;-79
2022/07/05 07:57:05;;;;;;;3.55;1.15;;;;;;;28.88;27.73;96111.78;5015244;28;20181;-78
2022/07/05 07:59:34;;;;;;;1.67;1.02;;;;;;;28.50;27.75;96116.91;5015589;28;20179;-78
2022/07/05 08:01:59;;;;;;;2.78;1.23;;;;;;;29.06;28.16;96116.81;5032302;28;20297;-78
2022/07/05 08:04:25;;;;;;;2.80;1.17;;;;;;;28.94;27.59;96114.28;5015091;28;20266;-78
2022/07/05 08:06:50;;;;;;;3.75;1.13;;;;;;;28.98;28.04;96119.97;4999521;28;20217;-78
2022/07/05 08:09:15;;;;;;;3.85;1.30;;;;;;;29.12;27.91;96117.69;4999199;28;20194;-78
2022/07/05 08:11:41;;;;;;;4.80;1.45;;;;;;;28.21;28.48;96108.22;5015700;28;20294;-78
2022/07/05 08:14:06;;;;;;;2.58;1.17;;;;;;;29.01;27.31;96117.59;4998311;28;20195;-78
2022/07/05 08:16:32;;;;;;;3.78;1.25;;;;;;;28.34;28.63;96119.63;5015862;28;20175;-78
2022/07/05 08:21:41;;;;;;;3.42;1.23;;;;;;;27.80;29.13;96113.97;5015651;28;20238;-78
2022/07/05 08:24:14;;;;;;;2.35;0.90;;;;;;;27.19;29.03;96124.34;5016461;28;20631;-79
2022/07/05 08:26:40;;;;;;;4.90;1.42;;;;;;;27.14;29.24;96124.25;4999437;28;20623;-79
2022/07/05 08:29:09;;;;;;;2.50;1.00;;;;;;;27.35;29.90;96118.25;5015397;28;20175;-78
2022/07/05 08:31:42;;;;;;;2.92;1.55;;;;;;;26.98;31.08;96112.44;4998316;28;20195;-79
2022/07/05 08:34:07;;;;;;;3.10;1.20;;;;;;;27.25;30.00;96123.38;4997987;28;20215;-79
2022/07/05 08:36:33;;;;;;;2.08;1.33;;;;;;;27.29;28.80;96118.38;4999171;28;20381;-79
2022/07/05 08:38:58;;;;;;;3.45;1.20;;;;;;;26.91;30.66;96116.28;5015686;28;20234;-78
2022/07/05 08:41:24;;;;;;;2.03;1.15;;;;;;;26.16;30.75;96125.06;4998632;28;20226;-78
2022/07/05 08:43:51;;;;;;;1.55;1.10;;;;;;;26.65;30.47;96118.44;4997933;28;20271;-78
2022/07/05 08:46:17;;;;;;;3.80;1.30;;;;;;;26.44;31.16;96122.53;5014559;28;20203;-79
2022/07/05 08:48:43;;;;;;;2.65;1.25;;;;;;;26.40;32.29;96113.38;4998346;28;20183;-79
2022/07/05 08:51:18;;;;;;;2.03;0.90;;;;;;;26.39;29.59;96124.25;5015064;28;20198;-79
2022/07/05 08:53:44;;;;;;;1.35;1.10;;;;;;;26.17;30.40;96121.38;5014679;28;20257;-79
2022/07/05 08:56:12;;;;;;;2.00;1.10;;;;;;;26.12;31.68;96119.38;4998781;28;20175;-79
2022/07/05 08:58:38;;;;;;;3.33;1.10;;;;;;;26.41;32.08;96116.84;5014575;28;20198;-79
2022/07/05 09:01:04;;;;;;;1.38;0.88;;;;;;;26.03;32.33;96110.13;5015332;28;20198;-78
2022/07/05 09:03:38;;;;;;;1.45;1.00;;;;;;;26.18;31.74;96122.97;5016556;28;20666;-78
2022/07/05 09:06:05;;;;;;;2.97;1.10;;;;;;;26.32;30.67;96119.03;5014398;28;20178;-79
2022/07/05 09:08:34;;;;;;;3.55;0.95;;;;;;;26.00;30.20;96123.91;4998534;28;20202;-79
2022/07/05 09:11:02;;;;;;;4.47;1.02;;;;;;;25.13;31.89;96121.69;4998729;28;20199;-79
2022/07/05 09:13:28;;;;;;;1.83;1.00;;;;;;;25.52;31.10;96127.47;4998442;28;20232;-78
2022/07/05 09:15:54;;;;;;;3.08;0.98;;;;;;;25.47;31.89;96123.88;4997176;28;20604;-79
2022/07/05 09:18:38;;;;;;;2.10;1.05;;;;;;;25.72;31.33;96123.75;5013427;28;20234;-78
2022/07/05 09:21:21;;;;;;;4.22;1.10;;;;;;;25.68;32.76;96129.47;4997998;28;20249;-79
2022/07/05 09:23:57;;;;;;;4.18;1.05;;;;;;;25.30;32.34;96132.50;5014366;28;20718;-79
2022/07/05 09:26:47;;;;;;;4.47;1.75;;;;;;;25.90;32.70;96134.31;5014812;28;20182;-78
2022/07/05 09:29:20;;;;;;;1.25;1.13;;;;;;;26.02;31.03;96137.78;4998274;28;20183;-79
2022/07/05 09:31:49;;;;;;;3.45;1.25;;;;;;;25.07;32.16;96135.84;5014785;28;20218;-78
2022/07/05 09:34:16;;;;;;;2.00;0.90;;;;;;;25.64;30.19;96138.97;5013616;28;20674;-79
2022/07/05 09:36:54;;;;;;;1.67;1.00;;;;;;;25.55;31.91;96140.31;5014505;28;20187;-79
2022/07/05 09:39:29;;;;;;;1.42;1.00;;;;;;;26.20;31.04;96135.00;4998180;28;20194;-79
2022/07/05 09:42:14;;;;;;;2.88;1.02;;;;;;;26.36;31.32;96141.50;5015453;28;20200;-79
2022/07/05 09:44:44;;;;;;;2.03;1.20;;;;;;;26.50;30.36;96147.41;4996927;28;20179;-79
2022/07/05 09:47:14;;;;;;;2.75;0.77;;;;;;;26.08;30.45;96147.50;5013445;28;20230;-79
2022/07/05 09:49:43;;;;;;;2.90;0.82;;;;;;;26.21;29.98;96144.59;5014214;28;20182;-79
2022/07/05 09:52:09;;;;;;;1.42;1.10;;;;;;;26.13;30.41;96142.28;5015505;28;20196;-79
2022/07/05 09:54:34;;;;;;;3.00;1.33;;;;;;;26.23;30.29;96141.72;5012721;28;20199;-80
2022/07/05 09:57:00;;;;;;;4.95;1.20;;;;;;;25.55;31.13;96150.16;5012716;28;20194;-78
2022/07/05 09:59:25;;;;;;;3.67;1.15;;;;;;;26.03;30.48;96134.06;5017084;28;20538;-79
2022/07/05 10:01:51;;;;;;;1.23;1.10;;;;;;;26.27;31.38;96133.03;4997671;28;20581;-79
2022/07/05 10:04:16;;;;;;;2.97;1.08;;;;;;;26.13;31.78;96133.50;4997385;28;20171;-78
2022/07/05 10:06:42;;;;;;;2.35;0.80;;;;;;;26.33;31.62;96133.97;4997368;28;20658;-79
2022/07/05 10:09:09;;;;;;;2.05;0.98;;;;;;;26.91;29.97;96137.63;5014704;28;20335;-79
2022/07/05 10:11:39;;;;;;;1.52;0.98;;;;;;;26.86;29.83;96140.16;5013292;28;20195;-78
2022/07/05 10:14:10;;;;;;;3.78;1.20;;;;;;;26.82;30.26;96137.97;4997184;28;20227;-79
2022/07/05 10:16:35;;;;;;;1.48;0.80;;;;;;;26.80;30.42;96134.75;4997475;28;20179;-79
2022/07/05 10:19:00;;;;;;;2.38;0.90;;;;;;;27.23;29.46;96136.16;5012415;28;20235;-78
2022/07/05 10:21:27;;;;;;;3.53;1.35;;;;;;;27.03;28.48;96131.25;5013341;28;20970;-78
2022/07/05 10:23:53;;;;;;;2.13;1.00;;;;;;;27.13;27.55;96135.97;5012740;28;20171;-79
2022/07/05 10:26:19;;;;;;;1.13;0.80;;;;;;;26.31;30.26;96137.91;5013460;28;20357;-78
2022/07/05 10:28:47;;;;;;;4.40;1.00;;;;;;;26.47;30.65;96139.88;4997276;28;20651;-79
2022/07/05 10:31:14;;;;;;;3.25;1.00;;;;;;;26.67;28.97;96137.66;5013231;28;20203;-79
2022/07/05 10:33:40;;;;;;;1.90;1.20;;;;;;;26.77;30.11;96139.75;4996261;28;20191;-80
2022/07/05 10:36:06;;;;;;;2.60;1.00;;;;;;;26.71;28.58;96128.16;5012679;28;20191;-80
2022/07/05 10:38:35;;;;;;;5.38;1.20;;;;;;;26.19;29.12;96125.41;5013238;28;20175;-79
2022/07/05 10:41:03;;;;;;;3.80;1.20;;;;;;;26.21;29.44;96138.47;5013666;28;20241;-79
2022/07/05 10:43:28;;;;;;;4.32;1.20;;;;;;;26.38;29.57;96127.97;4996290;28;20266;-79
2022/07/05 10:45:54;;;;;;;3.90;1.13;;;;;;;25.97;29.28;96133.16;4996422;28;20278;-80
2022/07/05 10:48:20;;;;;;;4.40;1.23;;;;;;;25.66;29.78;96128.91;5014058;28;20183;-79
2022/07/05 10:50:56;;;;;;;4.40;1.10;;;;;;;26.18;29.75;96125.63;5012522;28;20209;-79
2022/07/05 10:53:41;;;;;;;2.28;1.10;;;;;;;25.69;30.60;96119.66;5014155;28;20179;-79
2022/07/05 10:56:06;;;;;;;2.75;0.95;;;;;;;25.94;29.42;96128.28;4998797;28;20194;-79
2022/07/05 10:58:47;;;;;;;2.95;1.13;;;;;;;25.86;29.23;96133.13;5012505;28;20179;-79
2022/07/05 11:01:14;;;;;;;3.08;1.08;;;;;;;26.06;29.30;96120.31;5012553;28;20205;-79
2022/07/05 11:03:45;;;;;;;4.13;1.00;;;;;;;26.01;28.81;96122.84;5013514;28;20222;-79
2022/07/05 11:06:20;;;;;;;3.03;0.95;;;;;;;25.63;28.29;96118.72;5014265;28;20183;-79
2022/07/05 11:09:05;;;;;;;2.17;1.02;;;;;;;25.90;27.23;96123.66;4997396;28;20480;-80
2022/07/05 11:12:02;;;;;;;1.58;1.10;;;;;;;26.17;29.32;96132.81;5016290;28;20297;-79
2022/07/05 11:14:29;;;;;;;2.63;1.10;;;;;;;26.33;28.88;96126.00;4999670;28;20253;-79
2022/07/05 11:17:15;;;;;;;1.85;1.10;;;;;;;26.26;29.37;96126.09;4999370;28;20179;-79
2022/07/05 11:19:59;;;;;;;2.25;1.10;;;;;;;25.85;29.75;96129.66;5017443;28;20737;-79
2022/07/05 11:22:25;;;;;;;2.33;1.25;;;;;;;26.11;30.53;96127.59;5016393;28;20212;-78
2022/07/05 11:24:51;;;;;;;1.70;1.10;;;;;;;26.62;29.52;96134.91;5015766;28;20611;-78
2022/07/05 11:27:17;;;;;;;3.75;1.10;;;;;;;26.69;29.67;96126.78;5016302;28;20179;-79
2022/07/05 11:29:47;;;;;;;4.20;1.30;;;;;;;25.93;28.54;96131.97;4999510;28;20174;-77
2022/07/05 11:32:42;;;;;;;3.45;1.30;;;;;;;26.02;29.47;96124.47;5016292;28;20179;-78
2022/07/05 11:35:19;;;;;;;1.73;1.00;;;;;;;26.29;29.51;96130.16;5013267;28;20225;-78
2022/07/05 11:38:00;;;;;;;2.67;1.15;;;;;;;25.69;29.22;96141.72;4999810;28;20195;-78
2022/07/05 11:40:29;;;;;;;2.67;1.15;;;;;;;26.32;30.17;96116.34;5015824;28;20679;-79
2022/07/05 11:42:54;;;;;;;3.67;1.02;;;;;;;26.33;29.45;96119.81;5016372;28;20183;-78
2022/07/05 11:45:20;;;;;;;4.72;1.17;;;;;;;26.30;28.73;96120.31;4998465;28;20187;-78